createdAt,value
2018-09-13T00:00:28.207Z,18.30
2018-09-13T00:02:56.983Z,18.20
2018-09-13T00:05:26.452Z,18.30
2018-09-13T00:07:55.224Z,18.20
2018-09-13T00:10:24.503Z,18.30
2018-09-13T00:12:53.259Z,18.20
2018-09-13T00:15:22.067Z,18.20
2018-09-13T00:17:50.936Z,18.10
2018-09-13T00:20:19.747Z,18.10
2018-09-13T00:22:48.543Z,18.10
2018-09-13T00:25:17.484Z,18.10
2018-09-13T00:27:46.296Z,18.10
2018-09-13T00:30:15.082Z,18.10
2018-09-13T00:32:43.877Z,18.10
2018-09-13T00:35:12.675Z,18.10
2018-09-13T00:37:41.645Z,18.00
2018-09-13T00:40:10.441Z,18.00
2018-09-13T00:42:39.254Z,18.00
2018-09-13T00:45:08.074Z,17.90
2018-09-13T00:47:41.107Z,17.90
2018-09-13T00:50:10.047Z,17.80
2018-09-13T00:52:38.874Z,17.80
2018-09-13T00:55:07.675Z,17.80
2018-09-13T00:57:36.888Z,17.80
2018-09-13T01:00:05.994Z,17.80
2018-09-13T01:02:34.970Z,17.80
2018-09-13T01:05:03.781Z,17.80
2018-09-13T01:07:32.624Z,17.70
2018-09-13T01:10:01.411Z,17.60
2018-09-13T01:12:30.220Z,17.60
2018-09-13T01:14:59.012Z,17.50
2018-09-13T01:17:27.807Z,17.40
2018-09-13T01:19:56.698Z,17.40
2018-09-13T01:22:25.491Z,17.30
2018-09-13T01:24:56.241Z,17.40
2018-09-13T01:27:26.414Z,17.40
2018-09-13T01:29:55.547Z,17.30
2018-09-13T01:32:24.315Z,17.30
2018-09-13T01:34:53.548Z,17.30
2018-09-13T01:37:22.454Z,17.30
2018-09-13T01:39:51.247Z,17.20
2018-09-13T01:42:19.999Z,17.20
2018-09-13T01:44:48.771Z,17.20
2018-09-13T01:47:17.563Z,17.20
2018-09-13T01:49:46.352Z,17.20
2018-09-13T01:52:15.133Z,17.20
2018-09-13T01:54:44.069Z,17.20
2018-09-13T01:57:12.876Z,17.20
2018-09-13T01:59:41.624Z,17.10
2018-09-13T02:02:10.510Z,17.10
2018-09-13T02:04:39.368Z,17.10
2018-09-13T02:07:08.224Z,17.10
2018-09-13T02:09:36.969Z,17.10
2018-09-13T02:12:05.875Z,17.10
2018-09-13T02:14:34.703Z,17.00
2018-09-13T02:17:03.480Z,17.00
2018-09-13T02:19:32.334Z,17.00
2018-09-13T02:22:01.143Z,17.00
2018-09-13T02:24:29.924Z,17.00
2018-09-13T02:26:58.706Z,17.00
2018-09-13T02:29:27.535Z,17.00
2018-09-13T02:31:56.309Z,17.10
2018-09-13T02:34:25.097Z,17.10
2018-09-13T02:36:54.012Z,17.20
2018-09-13T02:39:22.816Z,17.60
2018-09-13T02:41:51.587Z,17.80
2018-09-13T02:44:20.407Z,17.80
2018-09-13T02:46:49.178Z,17.90
2018-09-13T02:49:17.967Z,17.80
2018-09-13T02:51:46.843Z,17.80
2018-09-13T02:54:15.644Z,17.80
2018-09-13T02:56:44.520Z,17.70
2018-09-13T02:59:13.363Z,17.60
2018-09-13T03:01:42.200Z,17.60
2018-09-13T03:04:11.107Z,17.50
2018-09-13T03:06:39.937Z,17.50
2018-09-13T03:09:10.972Z,17.50
2018-09-13T03:11:40.179Z,17.40
2018-09-13T03:14:09.096Z,17.40
2018-09-13T03:16:37.886Z,17.40
2018-09-13T03:19:07.728Z,17.30
2018-09-13T03:21:36.516Z,17.30
2018-09-13T03:24:06.343Z,17.20
2018-09-13T03:26:35.139Z,17.20
2018-09-13T03:29:03.915Z,17.10
2018-09-13T03:31:32.741Z,17.10
2018-09-13T03:34:01.705Z,17.10
2018-09-13T03:36:30.460Z,17.00
2018-09-13T03:38:59.218Z,17.00
2018-09-13T03:41:28.322Z,17.00
2018-09-13T03:43:57.103Z,17.00
2018-09-13T03:46:25.890Z,17.00
2018-09-13T03:48:54.681Z,17.00
2018-09-13T03:51:24.003Z,17.00
2018-09-13T03:53:52.848Z,17.00
2018-09-13T03:56:21.662Z,17.00
2018-09-13T03:58:50.422Z,16.90
2018-09-13T04:01:19.239Z,16.90
2018-09-13T04:03:48.104Z,16.90
2018-09-13T04:06:16.876Z,16.90
2018-09-13T04:08:45.662Z,16.90
2018-09-13T04:11:14.583Z,16.90
2018-09-13T04:13:43.394Z,17.00
2018-09-13T04:16:12.144Z,16.90
2018-09-13T04:18:40.981Z,16.90
2018-09-13T04:21:09.768Z,16.80
2018-09-13T04:23:38.598Z,16.90
2018-09-13T04:26:07.463Z,16.80
2018-09-13T04:28:36.282Z,16.80
2018-09-13T04:31:05.089Z,16.80
2018-09-13T04:33:33.912Z,16.80
2018-09-13T04:36:02.822Z,16.70
2018-09-13T04:38:31.540Z,16.80
2018-09-13T04:41:00.453Z,16.70
2018-09-13T04:43:29.208Z,16.70
2018-09-13T04:45:57.966Z,16.70
2018-09-13T04:48:26.750Z,16.70
2018-09-13T04:50:55.562Z,16.70
2018-09-13T04:53:24.331Z,16.70
2018-09-13T04:55:53.122Z,16.70
2018-09-13T04:58:21.915Z,16.60
2018-09-13T05:00:50.719Z,16.70
2018-09-13T05:03:19.471Z,16.70
2018-09-13T05:05:48.351Z,16.60
2018-09-13T05:08:17.142Z,16.70
2018-09-13T05:10:46.074Z,16.70
2018-09-13T05:13:14.869Z,16.70
2018-09-13T05:15:43.696Z,16.70
2018-09-13T05:18:12.890Z,16.80
2018-09-13T05:20:41.651Z,16.80
2018-09-13T05:23:10.423Z,16.80
2018-09-13T05:25:39.231Z,16.80
2018-09-13T05:28:08.003Z,16.90
2018-09-13T05:30:36.779Z,16.90
2018-09-13T05:33:05.947Z,16.90
2018-09-13T05:35:34.771Z,16.90
2018-09-13T05:38:03.591Z,17.00
2018-09-13T05:40:32.389Z,17.10
2018-09-13T05:43:01.175Z,17.10
2018-09-13T05:45:30.465Z,17.10
2018-09-13T05:47:59.523Z,17.10
2018-09-13T05:50:28.275Z,17.10
2018-09-13T05:52:57.086Z,17.20
2018-09-13T05:55:26.219Z,17.30
2018-09-13T05:57:55.068Z,17.40
2018-09-13T06:00:24.012Z,17.50
2018-09-13T06:02:52.887Z,17.50
2018-09-13T06:05:21.674Z,17.60
2018-09-13T06:07:50.475Z,17.70
2018-09-13T06:10:19.551Z,17.70
2018-09-13T06:12:48.324Z,17.80
2018-09-13T06:15:17.112Z,17.80
2018-09-13T06:17:46.018Z,17.90
2018-09-13T06:20:14.927Z,17.90
2018-09-13T06:22:43.988Z,18.00
2018-09-13T06:25:12.756Z,18.10
2018-09-13T06:27:41.575Z,18.10
2018-09-13T06:30:10.719Z,18.20
2018-09-13T06:32:39.543Z,18.30
2018-09-13T06:35:08.388Z,18.30
2018-09-13T06:37:37.739Z,18.30
2018-09-13T06:40:07.359Z,18.40
2018-09-13T06:42:36.733Z,18.30
2018-09-13T06:45:06.653Z,18.40
2018-09-13T06:47:35.590Z,18.50
2018-09-13T06:50:04.728Z,18.50
2018-09-13T06:52:33.607Z,18.60
2018-09-13T06:55:02.468Z,18.60
2018-09-13T06:57:31.270Z,18.70
2018-09-13T07:00:00.065Z,18.60
2018-09-13T07:02:28.892Z,18.70
2018-09-13T07:04:58.821Z,18.70
2018-09-13T07:07:28.463Z,18.70
2018-09-13T07:09:57.888Z,18.70
2018-09-13T07:12:26.659Z,18.70
2018-09-13T07:14:55.453Z,18.70
2018-09-13T07:17:24.346Z,18.70
2018-09-13T07:19:53.195Z,18.70
2018-09-13T07:22:21.995Z,18.70
2018-09-13T07:24:50.791Z,18.70
2018-09-13T07:27:19.668Z,18.60
2018-09-13T07:29:48.436Z,18.70
2018-09-13T07:32:17.214Z,18.70
2018-09-13T07:34:46.012Z,18.70
2018-09-13T07:37:14.799Z,18.80
2018-09-13T07:39:44.303Z,18.80
2018-09-13T07:42:13.831Z,18.90
2018-09-13T07:44:43.630Z,19.00
2018-09-13T07:47:13.851Z,19.10
2018-09-13T07:49:43.236Z,19.10
2018-09-13T07:55:15.323Z,19.30
2018-09-13T07:57:44.324Z,19.30
2018-09-13T08:00:14.240Z,19.50
2018-09-13T08:02:43.774Z,19.60
2018-09-13T08:05:13.504Z,19.70
2018-09-13T08:07:42.888Z,19.80
2018-09-13T08:10:12.548Z,19.90
2018-09-13T08:12:42.210Z,20.10
2018-09-13T08:15:11.615Z,20.20
2018-09-13T08:17:40.741Z,20.40
2018-09-13T08:20:10.420Z,20.40
2018-09-13T08:22:40.113Z,20.50
2018-09-13T08:25:09.545Z,20.60
2018-09-13T08:27:39.082Z,20.70
2018-09-13T08:30:08.648Z,20.70
2018-09-13T08:32:37.548Z,20.80
2018-09-13T08:35:06.367Z,20.90
2018-09-13T08:37:35.119Z,20.90
2018-09-13T08:40:03.928Z,20.90
2018-09-13T08:42:32.735Z,21.00
2018-09-13T08:45:01.504Z,21.10
2018-09-13T08:47:30.380Z,20.90
2018-09-13T08:49:59.121Z,21.00
2018-09-13T08:52:27.913Z,21.10
2018-09-13T08:54:56.704Z,21.20
2018-09-13T08:57:25.516Z,21.30
2018-09-13T08:59:54.378Z,21.40
2018-09-13T09:02:23.196Z,21.50
2018-09-13T09:04:52.069Z,21.50
2018-09-13T09:07:20.860Z,21.60
2018-09-13T09:09:49.746Z,21.50
2018-09-13T09:12:18.563Z,21.50
2018-09-13T09:14:47.344Z,21.50
2018-09-13T09:17:16.291Z,21.50
2018-09-13T09:19:45.179Z,21.60
2018-09-13T09:22:13.959Z,21.60
2018-09-13T09:24:42.768Z,21.70
2018-09-13T09:27:11.835Z,21.70
2018-09-13T09:29:40.739Z,21.80
2018-09-13T09:32:09.528Z,21.90
2018-09-13T09:34:38.336Z,21.90
2018-09-13T09:37:07.130Z,22.00
2018-09-13T09:39:35.988Z,22.10
2018-09-13T09:42:04.796Z,22.30
2018-09-13T09:44:33.572Z,22.50
2018-09-13T09:47:02.377Z,22.70
2018-09-13T09:49:31.147Z,23.00
2018-09-13T09:52:00.051Z,23.20
2018-09-13T09:54:28.968Z,23.20
2018-09-13T09:56:57.779Z,23.40
2018-09-13T09:59:26.608Z,23.70
2018-09-13T10:02:00.964Z,24.00
2018-09-13T10:04:29.795Z,24.10
2018-09-13T10:06:58.770Z,24.20
2018-09-13T10:09:27.543Z,24.00
2018-09-13T10:11:56.383Z,23.80
2018-09-13T10:14:25.185Z,23.80
2018-09-13T10:16:59.439Z,23.70
2018-09-13T10:19:33.818Z,23.50
2018-09-13T10:22:08.088Z,23.60
2018-09-13T10:24:42.194Z,23.50
2018-09-13T10:27:16.466Z,23.50
2018-09-13T10:29:50.888Z,23.40
2018-09-13T10:32:25.120Z,23.40
2018-09-13T10:34:59.450Z,23.30
2018-09-13T10:37:33.699Z,23.30
2018-09-13T10:40:07.973Z,23.40
2018-09-13T10:42:42.350Z,23.50
2018-09-13T10:45:16.679Z,23.60
2018-09-13T10:47:56.783Z,23.50
2018-09-13T10:50:26.904Z,23.50
2018-09-13T10:52:58.386Z,23.70
2018-09-13T10:55:28.466Z,23.70
2018-09-13T10:57:57.230Z,23.60
2018-09-13T11:00:26.087Z,23.70
2018-09-13T11:02:54.901Z,23.70
2018-09-13T11:05:23.662Z,23.70
2018-09-13T11:07:52.484Z,23.60
2018-09-13T11:10:21.472Z,23.60
2018-09-13T11:12:52.959Z,23.70
2018-09-13T11:15:27.237Z,23.60
2018-09-13T11:17:56.035Z,23.60
2018-09-13T11:20:24.820Z,23.50
2018-09-13T11:22:53.698Z,23.50
2018-09-13T11:25:23.284Z,23.50
2018-09-13T11:27:52.204Z,23.50
2018-09-13T11:30:20.995Z,23.60
2018-09-13T11:32:49.749Z,23.60
2018-09-13T11:35:18.677Z,23.50
2018-09-13T11:37:47.461Z,23.50
2018-09-13T11:40:16.386Z,23.40
2018-09-13T11:42:45.061Z,23.40
2018-09-13T11:45:13.827Z,23.40
2018-09-13T11:47:42.683Z,23.60
2018-09-13T11:50:11.448Z,23.70
2018-09-13T11:52:40.226Z,23.80
2018-09-13T11:55:09.037Z,24.00
2018-09-13T11:57:37.843Z,24.20
2018-09-13T12:00:07.252Z,24.30
2018-09-13T12:02:36.048Z,24.50
2018-09-13T12:05:05.145Z,24.60
2018-09-13T12:07:33.925Z,24.60
2018-09-13T12:10:02.723Z,24.60
2018-09-13T12:12:31.536Z,24.60
2018-09-13T12:15:00.319Z,24.60
2018-09-13T12:17:29.408Z,24.60
2018-09-13T12:19:58.189Z,24.60
2018-09-13T12:22:27.006Z,24.70
2018-09-13T12:24:55.779Z,24.60
2018-09-13T12:27:24.607Z,24.80
2018-09-13T12:29:53.356Z,24.60
2018-09-13T12:32:22.223Z,24.80
2018-09-13T12:34:51.038Z,25.00
2018-09-13T12:37:19.908Z,25.00
2018-09-13T12:39:48.777Z,25.10
2018-09-13T12:42:17.583Z,25.20
2018-09-13T12:44:46.407Z,24.80
2018-09-13T12:47:15.224Z,24.60
2018-09-13T12:49:44.216Z,24.60
2018-09-13T12:52:13.022Z,24.60
2018-09-13T12:54:41.880Z,24.60
2018-09-13T12:57:10.663Z,24.50
2018-09-13T12:59:39.494Z,24.60
2018-09-13T13:02:08.278Z,24.50
2018-09-13T13:04:37.092Z,24.60
2018-09-13T13:07:05.862Z,24.60
2018-09-13T13:09:34.728Z,24.60
2018-09-13T13:12:03.515Z,24.50
2018-09-13T13:14:32.316Z,24.50
2018-09-13T13:17:01.258Z,24.60
2018-09-13T13:19:30.313Z,24.70
2018-09-13T13:21:59.043Z,24.80
2018-09-13T13:24:27.832Z,24.80
2018-09-13T13:26:56.684Z,24.90
2018-09-13T13:29:25.478Z,24.80
2018-09-13T13:31:55.257Z,24.80
2018-09-13T13:34:24.033Z,24.80
2018-09-13T13:36:52.791Z,24.90
2018-09-13T13:39:21.579Z,25.10
2018-09-13T13:41:50.385Z,25.10
2018-09-13T13:44:19.171Z,25.20
2018-09-13T13:46:48.066Z,25.20
2018-09-13T13:49:16.861Z,25.30
2018-09-13T13:51:45.619Z,25.50
2018-09-13T13:54:14.670Z,25.50
2018-09-13T13:56:43.522Z,25.20
2018-09-13T13:59:12.299Z,25.10
2018-09-13T14:01:41.092Z,25.10
2018-09-13T14:04:09.943Z,25.00
2018-09-13T14:06:38.905Z,25.40
2018-09-13T14:09:09.852Z,25.90
2018-09-13T14:11:38.655Z,25.70
2018-09-13T14:14:07.426Z,26.10
2018-09-13T14:16:36.284Z,26.40
2018-09-13T14:19:05.070Z,26.50
2018-09-13T14:21:33.840Z,26.70
2018-09-13T14:24:02.616Z,26.60
2018-09-13T14:26:31.404Z,26.20
2018-09-13T14:29:00.192Z,26.40
2018-09-13T14:31:29.079Z,26.40
2018-09-13T14:33:57.936Z,26.40
2018-09-13T14:36:26.724Z,26.30
2018-09-13T14:38:55.492Z,26.30
2018-09-13T14:41:25.285Z,26.20
2018-09-13T14:43:54.028Z,26.10
2018-09-13T14:46:22.835Z,26.10
2018-09-13T14:48:51.630Z,26.00
2018-09-13T14:51:20.463Z,25.90
2018-09-13T14:53:49.236Z,25.60
2018-09-13T14:56:18.085Z,25.30
2018-09-13T14:58:46.911Z,25.10
2018-09-13T15:01:15.699Z,25.00
2018-09-13T15:03:44.576Z,24.80
2018-09-13T15:06:13.353Z,24.60
2018-09-13T15:08:42.174Z,24.50
2018-09-13T15:11:11.132Z,24.40
2018-09-13T15:13:40.288Z,24.20
2018-09-13T15:16:09.024Z,24.10
2018-09-13T15:18:37.816Z,24.10
2018-09-13T15:21:06.602Z,23.90
2018-09-13T15:23:35.379Z,23.80
2018-09-13T15:26:04.143Z,23.70
2018-09-13T15:28:32.995Z,23.60
2018-09-13T15:31:01.858Z,23.50
2018-09-13T15:33:30.572Z,23.40
2018-09-13T15:35:59.346Z,23.40
2018-09-13T15:38:28.156Z,23.20
2018-09-13T15:40:56.915Z,23.10
2018-09-13T15:43:25.890Z,23.00
2018-09-13T15:45:54.708Z,23.00
2018-09-13T15:48:23.520Z,22.90
2018-09-13T15:50:52.410Z,22.80
2018-09-13T15:53:21.196Z,22.60
2018-09-13T15:55:50.247Z,22.40
2018-09-13T15:58:19.045Z,22.10
2018-09-13T16:00:47.859Z,21.90
2018-09-13T16:03:16.642Z,21.70
2018-09-13T16:05:45.463Z,21.40
2018-09-13T16:08:14.269Z,21.20
2018-09-13T16:10:43.055Z,21.20
2018-09-13T16:13:12.038Z,20.90
2018-09-13T16:15:40.724Z,20.60
2018-09-13T16:18:09.739Z,20.40
2018-09-13T16:20:38.537Z,20.30
2018-09-13T16:23:07.308Z,20.30
2018-09-13T16:25:36.111Z,20.10
2018-09-13T16:28:04.945Z,20.00
2018-09-13T16:30:33.775Z,19.80
2018-09-13T16:33:02.559Z,19.80
2018-09-13T16:35:31.360Z,19.80
2018-09-13T16:38:07.544Z,19.80
2018-09-13T16:40:41.827Z,19.60
2018-09-13T16:43:13.300Z,19.50
2018-09-13T16:45:42.076Z,19.30
2018-09-13T16:48:10.876Z,19.30
2018-09-13T16:50:39.665Z,19.10
2018-09-13T16:53:08.453Z,19.10
2018-09-13T16:55:37.775Z,18.80
2018-09-13T16:58:14.539Z,18.80
2018-09-13T17:00:43.511Z,18.70
2018-09-13T17:03:12.348Z,18.70
2018-09-13T17:05:41.116Z,18.70
2018-09-13T17:08:10.180Z,18.60
2018-09-13T17:10:39.012Z,18.50
2018-09-13T17:13:07.824Z,18.50
2018-09-13T17:15:36.725Z,18.60
2018-09-13T17:18:06.609Z,18.60
2018-09-13T17:20:35.388Z,18.50
2018-09-13T17:23:04.192Z,18.50
2018-09-13T17:25:33.103Z,18.50
2018-09-13T17:28:02.147Z,18.40
2018-09-13T17:30:30.923Z,18.40
2018-09-13T17:32:59.803Z,18.40
2018-09-13T17:35:29.404Z,18.30
2018-09-13T17:37:58.380Z,18.20
2018-09-13T17:40:28.172Z,18.20
2018-09-13T17:42:56.999Z,18.10
2018-09-13T17:45:26.352Z,18.00
2018-09-13T17:47:55.691Z,18.10
2018-09-13T17:50:24.507Z,17.90
2018-09-13T17:52:53.274Z,17.90
2018-09-13T17:55:22.066Z,17.80
2018-09-13T17:57:50.889Z,17.90
2018-09-13T18:00:19.733Z,17.80
2018-09-13T18:02:48.531Z,17.70
2018-09-13T18:05:17.375Z,17.70
2018-09-13T18:07:46.184Z,17.70
2018-09-13T18:10:14.971Z,17.60
2018-09-13T18:12:43.751Z,17.60
2018-09-13T18:15:12.634Z,17.60
2018-09-13T18:17:41.379Z,17.50
2018-09-13T18:20:10.215Z,17.50
2018-09-13T18:22:39.043Z,17.50
2018-09-13T18:25:07.846Z,17.40
2018-09-13T18:27:36.892Z,17.50
2018-09-13T18:30:06.452Z,17.40
2018-09-13T18:32:35.269Z,17.30
2018-09-13T18:35:04.076Z,17.30
2018-09-13T18:37:32.860Z,17.30
2018-09-13T18:40:01.665Z,17.30
2018-09-13T18:42:30.517Z,17.40
2018-09-13T18:44:59.312Z,17.30
2018-09-13T18:47:28.175Z,17.30
2018-09-13T18:49:56.991Z,17.20
2018-09-13T18:52:25.932Z,17.20
2018-09-13T18:54:54.757Z,17.20
2018-09-13T18:57:23.568Z,17.20
2018-09-13T18:59:52.448Z,17.20
2018-09-13T19:02:21.240Z,17.20
2018-09-13T19:04:50.159Z,17.10
2018-09-13T19:07:19.020Z,17.20
2018-09-13T19:09:47.931Z,17.20
2018-09-13T19:12:16.741Z,17.10
2018-09-13T19:14:46.194Z,17.00
2018-09-13T19:17:15.082Z,17.10
2018-09-13T19:19:43.987Z,17.00
2018-09-13T19:22:12.840Z,17.00
2018-09-13T19:24:41.636Z,16.90
2018-09-13T19:27:11.812Z,16.90
2018-09-13T19:29:40.682Z,16.80
2018-09-13T19:32:09.521Z,16.80
2018-09-13T19:34:38.304Z,16.80
2018-09-13T19:37:07.181Z,16.80
2018-09-13T19:39:36.622Z,16.70
2018-09-13T19:42:05.479Z,16.80
2018-09-13T19:44:34.298Z,16.80
2018-09-13T19:47:04.187Z,16.70
2018-09-13T19:49:32.976Z,16.60
2018-09-13T19:52:01.875Z,16.70
2018-09-13T19:54:31.935Z,16.70
2018-09-13T19:57:00.975Z,16.70
2018-09-13T19:59:31.890Z,16.60
2018-09-13T20:02:00.774Z,16.60
2018-09-13T20:04:29.783Z,16.50
2018-09-13T20:06:58.584Z,16.60
2018-09-13T20:09:28.446Z,16.50
2018-09-13T20:11:57.320Z,16.50
2018-09-13T20:14:26.129Z,16.40
2018-09-13T20:16:54.972Z,16.40
2018-09-13T20:19:23.914Z,16.30
2018-09-13T20:21:53.827Z,16.30
2018-09-13T20:24:22.615Z,16.30
2018-09-13T20:26:51.398Z,16.30
2018-09-13T20:29:20.411Z,16.20
2018-09-13T20:31:49.288Z,16.20
2018-09-13T20:34:19.179Z,16.30
2018-09-13T20:36:48.040Z,16.20
2018-09-13T20:39:16.957Z,16.20
2018-09-13T20:41:45.821Z,16.20
2018-09-13T20:44:14.748Z,16.20
2018-09-13T20:46:43.531Z,16.20
2018-09-13T20:49:12.434Z,16.20
2018-09-13T20:51:41.243Z,16.20
2018-09-13T20:54:10.073Z,16.20
2018-09-13T20:56:38.931Z,16.20
2018-09-13T20:59:08.583Z,16.30
2018-09-13T21:01:37.420Z,16.20
2018-09-13T21:04:06.324Z,16.30
2018-09-13T21:06:35.112Z,16.20
2018-09-13T21:09:05.797Z,16.10
2018-09-13T21:11:34.578Z,16.10
2018-09-13T21:14:03.522Z,16.20
2018-09-13T21:16:33.368Z,16.20
2018-09-13T21:19:02.290Z,16.10
2018-09-13T21:21:31.315Z,16.10
2018-09-13T21:24:00.088Z,16.00
2018-09-13T21:26:29.183Z,16.00
2018-09-13T21:28:58.115Z,16.00
2018-09-13T21:31:27.835Z,16.00
2018-09-13T21:33:57.956Z,16.00
2018-09-13T21:36:26.792Z,15.90
2018-09-13T21:38:55.600Z,15.90
2018-09-13T21:41:24.513Z,15.90
2018-09-13T21:43:53.501Z,16.00
2018-09-13T21:46:22.404Z,16.00
2018-09-13T21:48:51.234Z,15.90
2018-09-13T21:51:20.165Z,15.90
2018-09-13T21:53:49.104Z,16.00
2018-09-13T21:56:17.900Z,16.00
2018-09-13T21:58:46.744Z,16.00
2018-09-13T22:01:15.600Z,16.00
2018-09-13T22:03:45.162Z,16.00
2018-09-13T22:06:14.639Z,16.00
2018-09-13T22:08:43.480Z,15.90
2018-09-13T22:11:12.285Z,15.90
2018-09-13T22:13:41.087Z,16.00
2018-09-13T22:16:09.928Z,16.00
2018-09-13T22:18:38.736Z,15.90
2018-09-13T22:21:07.554Z,15.90
2018-09-13T22:23:36.863Z,15.90
2018-09-13T22:26:06.698Z,15.90
2018-09-13T22:28:35.564Z,15.90
2018-09-13T22:31:04.365Z,15.80
2018-09-13T22:33:34.280Z,15.80
2018-09-13T22:36:03.097Z,15.80
2018-09-13T22:38:31.922Z,15.80
2018-09-13T22:41:00.688Z,15.80
2018-09-13T22:43:34.816Z,15.80
2018-09-13T22:46:03.590Z,15.80
2018-09-13T22:48:32.384Z,15.70
2018-09-13T22:51:01.436Z,15.70
2018-09-13T22:53:30.443Z,15.70
2018-09-13T22:55:59.136Z,15.70
2018-09-13T22:58:27.971Z,15.70
2018-09-13T23:00:57.935Z,15.70
2018-09-13T23:03:26.886Z,15.70
2018-09-13T23:05:55.676Z,15.70
2018-09-13T23:08:24.480Z,15.70
2018-09-13T23:10:53.327Z,15.60
2018-09-13T23:13:22.291Z,15.60
2018-09-13T23:15:51.151Z,15.60
2018-09-13T23:18:20.931Z,15.60
2018-09-13T23:20:49.740Z,15.50
2018-09-13T23:23:18.720Z,15.50
2018-09-13T23:25:48.293Z,15.50
2018-09-13T23:28:17.082Z,15.50
2018-09-13T23:30:45.863Z,15.50
2018-09-13T23:33:14.717Z,15.50
2018-09-13T23:35:44.687Z,15.50
2018-09-13T23:38:13.528Z,15.40
2018-09-13T23:40:42.487Z,15.40
2018-09-13T23:43:11.105Z,15.40
2018-09-13T23:45:39.896Z,15.30
2018-09-13T23:48:08.744Z,15.40
2018-09-13T23:50:37.519Z,15.30
2018-09-13T23:53:06.367Z,15.40
2018-09-13T23:55:35.201Z,15.40
2018-09-13T23:58:03.983Z,15.50
